Time;durP1;ratioP1;P1;durP2;ratioP2;P2;SDS_P1;SDS_P2;PMS_P1;PMS_P2;Temp;Humidity;BMP_temperature;BMP_pressure;BME280_temperature;BME280_humidity;BME280_pressure;Samples;Min_cycle;Max_cycle;Signal;HPM_P1;HPM_P2
2023/05/17 00:01:43;;;;;;;13.70;3.72;;;;;;;21.86;39.33;100361.01;1783384;80;21185;-79
2023/05/17 00:04:49;;;;;;;15.03;3.10;;;;;;;21.48;40.07;100351.07;1784808;80;21164;-79
2023/05/17 00:07:55;;;;;;;18.00;3.33;;;;;;;21.68;39.67;100359.27;1784788;80;21176;-79
2023/05/17 00:11:00;;;;;;;8.50;3.30;;;;;;;21.66;39.69;100353.67;1783525;80;21251;-79
2023/05/17 00:14:06;;;;;;;13.05;4.30;;;;;;;21.58;39.83;100342.92;1784780;80;21181;-79
2023/05/17 00:17:13;;;;;;;14.18;3.52;;;;;;;21.72;39.82;100354.61;1784834;80;21193;-79
2023/05/17 00:20:11;;;;;;;;;;;;;;;21.50;40.21;100349.74;1786905;80;21228;-79
2023/05/17 00:23:17;;;;;;;9.33;3.20;;;;;;;21.65;39.96;100359.78;1784775;80;20676;-79
2023/05/17 00:26:22;;;;;;;12.05;4.42;;;;;;;21.46;40.27;100366.63;1784727;80;21768;-79
2023/05/17 00:29:27;;;;;;;9.53;3.47;;;;;;;21.38;40.52;100361.45;1784666;80;21176;-79
2023/05/17 00:32:35;;;;;;;17.70;4.37;;;;;;;21.49;40.30;100352.20;1766617;80;21236;-79
2023/05/17 00:35:41;;;;;;;10.05;3.65;;;;;;;21.37;40.49;100355.59;1783154;80;21220;-79
2023/05/17 00:38:47;;;;;;;17.55;3.42;;;;;;;21.55;40.25;100348.45;1784761;80;21157;-79
2023/05/17 00:41:46;;;;;;;10.20;4.08;;;;;;;21.53;40.15;100345.05;1784811;80;21173;-79
2023/05/17 00:44:53;;;;;;;15.55;3.95;;;;;;;21.55;40.16;100344.80;1784938;80;21335;-79
2023/05/17 00:47:59;;;;;;;12.23;4.05;;;;;;;21.84;39.54;100348.45;1784802;80;21482;-79
2023/05/17 00:51:04;;;;;;;16.80;4.75;;;;;;;21.71;39.68;100353.77;1783308;80;21208;-79
2023/05/17 00:54:12;;;;;;;11.33;3.80;;;;;;;21.59;39.92;100346.84;1773152;80;21232;-79
2023/05/17 00:57:11;;;;;;;10.03;3.70;;;;;;;21.62;39.83;100348.30;1771314;81;21225;-79
2023/05/17 01:00:17;;;;;;;10.23;3.33;;;;;;;21.73;39.71;100350.72;1770381;81;21209;-79
2023/05/17 01:03:22;;;;;;;11.80;3.95;;;;;;;21.88;39.47;100355.21;1771116;81;21173;-79
2023/05/17 01:06:29;;;;;;;12.50;4.00;;;;;;;21.85;39.51;100360.72;1771072;81;21217;-79
2023/05/17 01:09:34;;;;;;;12.40;3.87;;;;;;;21.54;40.05;100353.70;1771135;81;21471;-79
2023/05/17 01:12:54;;;;;;;10.32;3.70;;;;;;;21.50;40.14;100353.92;1771080;81;21200;-79
2023/05/17 01:16:18;;;;;;;11.00;4.10;;;;;;;21.61;39.89;100345.22;1771100;81;21177;-79
2023/05/17 01:20:05;;;;;;;13.83;3.50;;;;;;;21.31;40.15;100341.25;1771014;81;21158;-79
2023/05/17 01:23:30;;;;;;;7.65;3.75;;;;;;;21.37;40.16;100343.91;1769987;81;21521;-79
2023/05/17 01:26:47;;;;;;;7.85;3.42;;;;;;;21.43;39.86;100349.03;1771005;81;21794;-79
2023/05/17 01:29:52;;;;;;;9.93;3.37;;;;;;;21.29;40.18;100348.98;1771076;81;21737;-79
2023/05/17 01:32:59;;;;;;;11.28;3.67;;;;;;;21.43;40.04;100347.64;1770998;81;21178;-79
2023/05/17 01:36:05;;;;;;;6.58;3.17;;;;;;;21.35;40.15;100352.19;1771407;81;21158;-79
2023/05/17 01:39:11;;;;;;;11.18;2.92;;;;;;;21.35;40.25;100348.86;1771055;81;21182;-79
2023/05/17 01:42:32;;;;;;;9.45;3.10;;;;;;;21.25;40.34;100350.01;1769883;81;21169;-79
2023/05/17 01:45:41;;;;;;;12.75;3.50;;;;;;;21.02;40.81;100341.16;1771383;81;21177;-79
2023/05/17 01:48:43;;;;;;;11.90;3.55;;;;;;;20.93;41.01;100344.02;1772129;81;21721;-79
2023/05/17 01:52:24;;;;;;;8.80;3.27;;;;;;;20.97;41.06;100339.66;1770341;81;21213;-79
2023/05/17 01:56:00;;;;;;;8.40;3.92;;;;;;;20.88;41.21;100339.18;1769502;81;21771;-79
2023/05/17 01:59:06;;;;;;;10.90;3.20;;;;;;;20.89;41.18;100344.23;1771003;81;21182;-79
2023/05/17 02:02:12;;;;;;;10.18;3.17;;;;;;;21.00;41.08;100347.52;1770115;81;21185;-79
2023/05/17 02:05:18;;;;;;;8.73;2.98;;;;;;;20.94;41.04;100347.12;1762982;81;21224;-79
2023/05/17 02:08:25;;;;;;;8.28;3.62;;;;;;;21.08;40.73;100349.94;1770094;81;21804;-79
2023/05/17 02:11:31;;;;;;;15.98;3.20;;;;;;;21.17;40.64;100348.98;1770540;81;21713;-79
2023/05/17 02:14:38;;;;;;;7.60;2.42;;;;;;;21.26;40.49;100350.84;1771076;81;21197;-79
2023/05/17 02:17:43;;;;;;;7.12;2.65;;;;;;;21.14;40.59;100359.23;1771240;81;21162;-79
2023/05/17 02:20:50;;;;;;;15.83;3.50;;;;;;;21.21;40.67;100354.36;1771087;81;21178;-79
2023/05/17 02:23:56;;;;;;;18.48;3.42;;;;;;;21.00;40.99;100352.24;1770178;81;21209;-79
2023/05/17 02:27:02;;;;;;;6.55;2.92;;;;;;;21.26;40.81;100355.02;1771115;81;21162;-79
2023/05/17 02:30:08;;;;;;;8.38;2.75;;;;;;;21.16;41.11;100351.48;1771061;81;21233;-79
2023/05/17 02:33:15;;;;;;;11.35;3.17;;;;;;;21.18;41.24;100350.16;1769589;81;21209;-79
2023/05/17 02:36:21;;;;;;;7.78;3.22;;;;;;;21.34;41.10;100344.94;1770979;81;21185;-79
2023/05/17 02:39:28;;;;;;;11.53;3.00;;;;;;;21.87;40.27;100349.32;1770562;81;21201;-79
2023/05/17 02:42:34;;;;;;;6.80;2.62;;;;;;;21.96;39.82;100356.17;1769593;81;21232;-79
2023/05/17 02:45:40;;;;;;;9.33;3.08;;;;;;;21.98;39.62;100359.58;1769515;81;21181;-79
2023/05/17 02:48:46;;;;;;;6.12;2.85;;;;;;;21.97;39.54;100362.03;1770978;81;21737;-79
2023/05/17 02:51:53;;;;;;;11.30;2.90;;;;;;;21.92;39.75;100366.13;1760408;81;21209;-79
2023/05/17 02:54:59;;;;;;;10.50;2.52;;;;;;;21.91;39.69;100375.03;1770492;80;21201;-80
2023/05/17 02:58:04;;;;;;;7.47;2.50;;;;;;;22.11;39.32;100373.22;1769613;81;21189;-79
2023/05/17 03:01:10;;;;;;;15.70;3.25;;;;;;;22.08;39.40;100383.42;1769621;81;22443;-79
2023/05/17 03:04:18;;;;;;;10.32;2.50;;;;;;;22.19;39.46;100388.66;1771162;81;21225;-79
2023/05/17 03:07:23;;;;;;;11.45;2.90;;;;;;;22.01;39.88;100392.47;1769699;81;21859;-80
2023/05/17 03:10:29;;;;;;;17.42;3.20;;;;;;;21.91;40.13;100395.06;1769658;81;21189;-79
2023/05/17 03:13:35;;;;;;;10.78;3.08;;;;;;;21.87;39.97;100406.40;1769799;81;21181;-79
2023/05/17 03:16:44;;;;;;;11.33;2.87;;;;;;;22.03;39.86;100409.80;1771013;81;21178;-79
2023/05/17 03:19:50;;;;;;;6.28;2.62;;;;;;;21.87;39.95;100409.19;1770996;81;21185;-80
2023/05/17 03:22:56;;;;;;;9.15;2.98;;;;;;;22.01;39.59;100407.78;1770498;81;21174;-79
2023/05/17 03:26:05;;;;;;;12.90;2.90;;;;;;;22.14;39.35;100416.42;1771074;81;21166;-80
2023/05/17 03:29:13;;;;;;;7.37;2.30;;;;;;;22.33;39.23;100414.27;1771226;81;21216;-79
2023/05/17 03:32:19;;;;;;;8.65;2.55;;;;;;;22.34;39.23;100424.30;1769767;81;21260;-79
2023/05/17 03:35:24;;;;;;;8.43;2.72;;;;;;;22.22;39.45;100422.99;1771137;81;21221;-78
2023/05/17 03:38:30;;;;;;;9.23;2.90;;;;;;;22.39;38.94;100419.66;1771106;81;21181;-79
2023/05/17 03:41:36;;;;;;;17.30;3.08;;;;;;;22.43;39.00;100426.98;1771012;81;21806;-79
2023/05/17 03:44:41;;;;;;;10.63;2.35;;;;;;;22.55;39.07;100429.16;1760696;81;21190;-79
2023/05/17 03:47:50;;;;;;;15.63;2.55;;;;;;;22.65;38.54;100435.45;1771092;81;21185;-79
2023/05/17 03:50:55;;;;;;;9.00;2.60;;;;;;;22.81;38.44;100442.95;1771009;81;21288;-79
2023/05/17 03:54:05;;;;;;;6.10;2.08;;;;;;;23.07;38.32;100451.23;1769784;81;21209;-79
2023/05/17 03:57:11;;;;;;;5.35;2.92;;;;;;;23.20;38.20;100455.61;1774393;80;21205;-79
2023/05/17 04:00:22;;;;;;;9.05;2.75;;;;;;;23.09;38.04;100449.02;1784135;80;21212;-79
2023/05/17 04:03:29;;;;;;;6.95;2.77;;;;;;;23.34;37.53;100449.12;1784113;80;21201;-79
2023/05/17 04:06:34;;;;;;;9.03;3.05;;;;;;;23.41;37.40;100458.14;1784999;80;21184;-79
2023/05/17 04:09:40;;;;;;;8.33;2.90;;;;;;;23.42;37.29;100452.28;1783513;80;21779;-79
2023/05/17 04:12:47;;;;;;;7.90;2.12;;;;;;;23.47;37.47;100459.89;1783278;80;21185;-79
2023/05/17 04:15:45;;;;;;;8.80;2.55;;;;;;;23.71;36.99;100461.39;1784857;80;21184;-79
2023/05/17 04:18:39;;;;;;;9.55;2.05;;;;;;;23.99;36.71;100458.07;1784737;80;21164;-79
2023/05/17 04:21:26;;;;;;;13.30;2.40;;;;;;;24.31;35.74;100464.30;1785754;80;21161;-79
2023/05/17 04:24:18;;;;;;;8.33;1.98;;;;;;;24.32;36.04;100464.58;1783721;80;21182;-79
2023/05/17 04:27:24;;;;;;;4.47;1.98;;;;;;;24.27;36.21;100463.13;1784812;80;21718;-79
2023/05/17 04:30:29;;;;;;;8.15;2.20;;;;;;;24.19;35.87;100470.89;1784819;80;21180;-79
2023/05/17 04:33:35;;;;;;;6.67;2.00;;;;;;;24.11;36.58;100475.55;1783362;80;21811;-79
2023/05/17 04:36:41;;;;;;;3.37;1.80;;;;;;;23.98;37.12;100472.59;1783380;80;21186;-79
2023/05/17 04:39:47;;;;;;;5.90;1.67;;;;;;;24.12;36.48;100478.63;1783330;80;21189;-79
2023/05/17 04:42:54;;;;;;;5.75;1.87;;;;;;;24.17;36.40;100480.08;1783385;80;21177;-79
2023/05/17 04:46:05;;;;;;;6.78;2.65;;;;;;;24.50;35.71;100478.22;1784810;80;21235;-79
2023/05/17 04:49:11;;;;;;;6.47;2.00;;;;;;;24.50;35.87;100486.61;1785358;80;21180;-79
2023/05/17 04:52:18;;;;;;;7.25;1.82;;;;;;;24.56;35.48;100484.17;1784839;80;21215;-79
2023/05/17 04:55:24;;;;;;;4.47;1.90;;;;;;;24.83;34.90;100481.88;1783556;80;21240;-79
2023/05/17 04:58:30;;;;;;;5.55;1.92;;;;;;;24.77;34.67;100478.20;1778855;80;21256;-79
2023/05/17 05:01:35;;;;;;;5.85;1.50;;;;;;;25.05;34.21;100485.44;1771151;81;21161;-79
2023/05/17 05:04:41;;;;;;;8.48;1.80;;;;;;;25.11;33.52;100476.55;1770231;81;21190;-79
2023/05/17 05:07:47;;;;;;;5.47;1.72;;;;;;;25.34;33.87;100486.51;1771320;81;21185;-79
2023/05/17 05:10:53;;;;;;;3.35;1.65;;;;;;;25.22;34.06;100484.77;1770734;81;21783;-79
2023/05/17 05:14:03;;;;;;;4.35;1.37;;;;;;;25.51;32.90;100482.98;1769825;81;21221;-79
2023/05/17 05:17:09;;;;;;;3.58;1.42;;;;;;;25.44;33.09;100485.17;1772295;79;21177;-80
2023/05/17 05:20:15;;;;;;;10.38;1.62;;;;;;;25.28;34.17;100491.80;1780060;79;21228;-80
2023/05/17 05:23:22;;;;;;;4.20;1.60;;;;;;;25.22;33.78;100488.96;1767296;79;21212;-80
2023/05/17 05:26:28;;;;;;;6.15;1.62;;;;;;;25.23;33.65;100492.05;1796364;79;21283;-80
2023/05/17 05:29:34;;;;;;;5.70;1.55;;;;;;;25.12;33.69;100489.42;1781887;79;21193;-80
2023/05/17 05:32:40;;;;;;;10.98;1.57;;;;;;;24.93;33.84;100488.95;1796161;79;21217;-80
2023/05/17 05:35:47;;;;;;;7.67;1.70;;;;;;;25.01;34.46;100497.42;1800743;79;21248;-80
2023/05/17 05:38:53;;;;;;;3.17;1.57;;;;;;;24.99;34.74;100512.53;1785034;79;21736;-80
2023/05/17 05:41:57;;;;;;;8.68;1.52;;;;;;;25.02;35.44;100507.50;1780523;79;21248;-80
2023/05/17 05:45:02;;;;;;;4.35;1.70;;;;;;;25.22;34.68;100501.56;1732022;82;21184;-80
2023/05/17 05:48:10;;;;;;;3.67;1.60;;;;;;;25.34;34.35;100511.70;1784339;78;21154;-80
2023/05/17 05:51:15;;;;;;;4.25;1.47;;;;;;;25.42;33.07;100512.61;1779884;79;21170;-79
2023/05/17 05:54:21;;;;;;;4.17;1.70;;;;;;;25.36;33.51;100503.87;1787584;79;21225;-79
2023/05/17 05:57:27;;;;;;;7.08;1.60;;;;;;;25.60;33.63;100505.72;1776726;79;21209;-80
2023/05/17 06:00:31;;;;;;;3.10;1.30;;;;;;;25.91;32.22;100505.34;1775085;80;21205;-79
2023/05/17 06:03:39;;;;;;;4.95;1.12;;;;;;;25.98;32.26;100500.34;1782308;79;21183;-79
2023/05/17 06:06:46;;;;;;;7.70;1.30;;;;;;;26.05;33.23;100508.48;1791667;79;21176;-79
2023/05/17 06:09:53;;;;;;;6.85;1.35;;;;;;;26.15;32.70;100507.95;1791273;79;22480;-80
2023/05/17 06:12:58;;;;;;;10.03;1.10;;;;;;;26.59;30.58;100502.52;1780460;79;21324;-80
2023/05/17 06:16:04;;;;;;;6.22;1.27;;;;;;;26.88;30.17;100505.06;1778206;79;21214;-80
2023/05/17 06:19:10;;;;;;;4.75;1.22;;;;;;;27.09;29.76;100506.48;1780110;79;21236;-80
2023/05/17 06:22:15;;;;;;;7.35;1.27;;;;;;;27.13;28.57;100504.24;1793531;79;21720;-80
2023/05/17 06:25:20;;;;;;;3.37;1.07;;;;;;;27.02;27.98;100517.98;1801722;79;21689;-80
2023/05/17 06:28:26;;;;;;;8.98;0.93;;;;;;;27.14;27.67;100510.12;1780437;79;21257;-80
2023/05/17 06:31:32;;;;;;;5.33;1.00;;;;;;;26.93;27.01;100511.23;1784753;79;21784;-79
2023/05/17 06:34:38;;;;;;;3.42;1.35;;;;;;;27.03;27.45;100515.45;1804264;79;21533;-79
2023/05/17 06:37:36;;;;;;;1.35;1.02;;;;;;;27.19;27.19;100514.34;1779086;79;21185;-79
2023/05/17 06:40:30;;;;;;;5.35;1.00;;;;;;;27.24;26.47;100521.38;1781595;79;21243;-79
2023/05/17 06:43:17;;;;;;;2.12;0.80;;;;;;;27.44;26.28;100513.48;1806489;79;21505;-80
2023/05/17 06:46:10;;;;;;;3.33;0.78;;;;;;;27.58;26.84;100513.73;1786442;79;21206;-80
2023/05/17 06:49:16;;;;;;;2.60;1.05;;;;;;;27.68;24.72;100508.09;1798020;79;21174;-80
2023/05/17 06:52:21;;;;;;;1.90;1.00;;;;;;;27.67;24.69;100510.63;1778972;79;21179;-79
2023/05/17 06:55:26;;;;;;;8.35;1.45;;;;;;;27.62;24.54;100508.37;1789231;79;21198;-80
2023/05/17 06:58:34;;;;;;;5.72;1.00;;;;;;;27.37;25.47;100499.44;1786780;79;21330;-79
2023/05/17 07:01:39;;;;;;;1.65;1.10;;;;;;;27.46;25.62;100516.00;1786582;78;21197;-79
2023/05/17 07:04:45;;;;;;;3.42;1.00;;;;;;;27.49;25.75;100507.02;1788920;79;21219;-79
2023/05/17 07:07:51;;;;;;;4.37;0.90;;;;;;;27.49;25.40;100507.02;1795921;79;21182;-80
2023/05/17 07:11:02;;;;;;;5.12;1.32;;;;;;;27.35;25.73;100503.11;1774126;79;21172;-80
2023/05/17 07:14:05;;;;;;;1.70;1.30;;;;;;;27.15;25.00;100511.84;1794112;79;21193;-80
2023/05/17 07:17:12;;;;;;;2.47;1.30;;;;;;;27.06;24.56;100513.49;1799772;79;21213;-80
2023/05/17 07:20:18;;;;;;;3.27;1.05;;;;;;;27.11;24.89;100513.52;1800724;79;21982;-80
2023/05/17 07:23:25;;;;;;;3.85;1.27;;;;;;;26.79;25.64;100509.55;1777355;79;21173;-80
2023/05/17 07:26:30;;;;;;;6.97;1.35;;;;;;;26.93;24.66;100512.64;1777712;79;21154;-80
2023/05/17 07:29:36;;;;;;;2.47;1.30;;;;;;;26.95;24.80;100508.41;1794354;79;21240;-80
2023/05/17 07:32:36;;;;;;;2.80;1.40;;;;;;;27.09;24.57;100513.50;1795461;79;21205;-80
2023/05/17 07:35:41;;;;;;;1.17;0.98;;;;;;;27.14;24.99;100512.94;1796251;79;21847;-78
2023/05/17 07:38:48;;;;;;;2.55;1.25;;;;;;;27.15;24.31;100506.22;1789024;79;21740;-80
2023/05/17 07:41:54;;;;;;;2.52;1.00;;;;;;;27.11;24.84;100500.89;1783634;79;21193;-80
2023/05/17 07:45:01;;;;;;;2.15;1.10;;;;;;;27.18;25.57;100502.83;1779640;79;21288;-80
2023/05/17 07:48:08;;;;;;;8.50;1.20;;;;;;;27.11;25.52;100500.05;1786762;79;21712;-80
2023/05/17 07:51:15;;;;;;;4.45;1.30;;;;;;;27.29;24.56;100495.27;1714096;81;21176;-79
2023/05/17 07:54:31;;;;;;;5.35;1.00;;;;;;;27.55;25.34;100490.98;1732588;82;21178;-80
2023/05/17 07:57:37;;;;;;;16.65;1.70;;;;;;;27.64;24.19;100490.68;1786193;79;21170;-80
2023/05/17 08:00:43;;;;;;;9.15;1.32;;;;;;;27.74;23.06;100485.89;1789992;79;21212;-80
2023/05/17 08:03:49;;;;;;;2.75;1.10;;;;;;;27.72;23.14;100492.38;1786113;79;21160;-80
2023/05/17 08:20:27;;;;;;;3.80;1.32;;;;;;;30.92;21.37;100480.33;1881713;75;22230;-84
2023/05/17 08:23:41;;;;;;;6.78;1.75;;;;;;;30.78;21.42;100488.74;1813258;77;21133;-80
2023/05/17 08:26:46;;;;;;;9.98;1.85;;;;;;;30.79;21.08;100487.02;1810821;78;21130;-80
2023/05/17 08:29:53;;;;;;;7.80;1.10;;;;;;;31.09;22.07;100493.28;1812377;78;21134;-79
2023/05/17 08:33:03;;;;;;;2.75;1.30;;;;;;;31.01;21.07;100492.02;1816923;78;21129;-80
2023/05/17 08:36:08;;;;;;;8.43;1.40;;;;;;;31.15;21.27;100490.66;1819948;76;21114;-79
2023/05/17 08:39:15;;;;;;;3.33;1.40;;;;;;;31.00;21.54;100489.48;1812191;77;21163;-79
2023/05/17 08:42:19;;;;;;;4.00;1.50;;;;;;;30.41;20.96;100478.27;1807853;78;21155;-83
2023/05/17 08:45:26;;;;;;;4.78;1.50;;;;;;;30.40;22.75;100487.89;1823178;78;21737;-80
2023/05/17 08:48:37;;;;;;;3.80;1.50;;;;;;;30.03;22.19;100477.63;1815336;78;21165;-81
2023/05/17 08:51:43;;;;;;;3.72;1.42;;;;;;;30.25;21.99;100481.87;1794749;77;21141;-81
2023/05/17 08:54:49;;;;;;;5.70;1.60;;;;;;;30.22;21.66;100479.10;1844847;76;21698;-79
2023/05/17 08:57:54;;;;;;;7.12;1.50;;;;;;;30.11;21.16;100479.49;1817472;78;21180;-83
2023/05/17 09:01:01;;;;;;;3.33;1.10;;;;;;;29.63;21.62;100473.89;1816734;76;21152;-84
2023/05/17 09:04:06;;;;;;;7.15;1.52;;;;;;;30.20;22.24;100470.08;1805979;79;21150;-81
2023/05/17 09:07:11;;;;;;;9.33;1.82;;;;;;;30.01;21.84;100473.42;1809821;77;21125;-82
2023/05/17 09:10:17;;;;;;;5.05;1.52;;;;;;;29.79;21.48;100467.79;1807465;78;21184;-83
2023/05/17 09:13:25;;;;;;;6.65;1.55;;;;;;;29.92;21.94;100458.31;1809464;77;21227;-80
2023/05/17 09:16:30;;;;;;;4.00;1.75;;;;;;;29.73;22.16;100457.69;1839014;76;21171;-82
2023/05/17 09:19:36;;;;;;;4.10;1.40;;;;;;;29.35;21.37;100462.90;1815015;77;21403;-80
2023/05/17 09:22:45;;;;;;;6.45;1.22;;;;;;;29.43;21.79;100462.26;1817429;78;21628;-83
2023/05/17 09:25:57;;;;;;;5.97;1.72;;;;;;;29.55;21.56;100474.00;1823927;78;21126;-83
2023/05/17 09:29:03;;;;;;;3.92;1.35;;;;;;;29.66;20.31;100469.08;1814079;78;21149;-82
2023/05/17 09:32:27;;;;;;;5.95;1.30;;;;;;;29.60;18.84;100464.08;1807296;77;21201;-82
2023/05/17 09:35:41;;;;;;;6.17;1.22;;;;;;;29.64;19.52;100465.70;1798680;78;21158;-82
2023/05/17 09:38:47;;;;;;;6.97;1.42;;;;;;;29.75;20.15;100463.89;1825504;77;21164;-81
2023/05/17 09:41:54;;;;;;;4.17;1.20;;;;;;;29.89;19.52;100465.98;1809907;77;21728;-80
2023/05/17 09:45:02;;;;;;;3.30;1.30;;;;;;;29.79;19.83;100459.33;1803750;79;21507;-82
2023/05/17 09:48:21;;;;;;;4.78;1.60;;;;;;;29.66;21.03;100450.19;1817871;78;21169;-82
2023/05/17 09:51:40;;;;;;;13.00;1.35;;;;;;;29.68;19.60;100459.73;1815157;78;21180;-84
2023/05/17 09:54:46;;;;;;;2.42;1.10;;;;;;;29.56;19.39;100457.36;1818090;77;21716;-83
2023/05/17 09:57:52;;;;;;;2.52;1.20;;;;;;;29.72;19.73;100443.34;1828709;77;21176;-82
2023/05/17 10:01:09;;;;;;;9.10;1.57;;;;;;;29.90;20.28;100457.78;1818435;78;21246;-82
2023/05/17 10:04:19;;;;;;;5.70;1.25;;;;;;;30.03;20.58;100440.14;1814451;78;21169;-83
2023/05/17 10:07:25;;;;;;;7.20;1.20;;;;;;;29.76;21.28;100443.01;1816035;78;21138;-82
2023/05/17 10:10:31;;;;;;;2.45;1.20;;;;;;;29.85;20.92;100445.17;1808839;78;21730;-81
2023/05/17 10:13:53;;;;;;;5.17;1.30;;;;;;;29.88;20.81;100444.00;1812432;78;21203;-80
2023/05/17 10:16:58;;;;;;;5.75;1.42;;;;;;;30.13;21.76;100440.02;1807495;78;21225;-81
2023/05/17 10:20:05;;;;;;;5.10;1.57;;;;;;;30.09;22.38;100434.68;1815307;78;21205;-80
2023/05/17 10:23:11;;;;;;;4.40;1.37;;;;;;;30.01;21.04;100426.31;1815486;78;21134;-81
2023/05/17 10:26:18;;;;;;;10.45;1.40;;;;;;;30.10;21.98;100431.28;1794437;78;21169;-82
2023/05/17 10:29:23;;;;;;;1.87;1.10;;;;;;;30.14;21.86;100433.80;1784919;79;21163;-81
2023/05/17 10:32:29;;;;;;;3.22;0.93;;;;;;;30.03;21.00;100431.67;1805029;78;21745;-80
2023/05/17 10:35:35;;;;;;;3.27;1.35;;;;;;;29.98;20.31;100418.48;1811827;78;21651;-82
2023/05/17 10:38:40;;;;;;;1.92;1.00;;;;;;;30.14;21.43;100417.72;1809083;79;21215;-81
2023/05/17 10:41:49;;;;;;;2.67;0.95;;;;;;;30.15;21.46;100416.56;1819902;78;21169;-82
2023/05/17 10:45:00;;;;;;;1.75;0.72;;;;;;;30.09;19.88;100406.48;1810726;79;21166;-82
2023/05/17 10:48:06;;;;;;;4.47;1.20;;;;;;;30.14;20.51;100408.42;1801563;78;21193;-78
2023/05/17 10:51:17;;;;;;;5.42;0.88;;;;;;;30.13;21.13;100411.81;1749268;80;21189;-80
2023/05/17 10:54:22;;;;;;;4.22;1.10;;;;;;;30.36;21.41;100405.83;1797096;79;21159;-79
2023/05/17 10:57:35;;;;;;;3.75;1.07;;;;;;;30.53;21.71;100411.73;1816465;78;21463;-81
2023/05/17 11:00:47;;;;;;;2.58;1.00;;;;;;;30.59;21.94;100398.41;1792210;79;21148;-83
2023/05/17 11:03:54;;;;;;;4.30;1.12;;;;;;;30.64;22.94;100414.42;1807438;78;21204;-82
2023/05/17 11:07:03;;;;;;;6.17;1.12;;;;;;;30.49;22.51;100395.77;1753267;80;21535;-80
2023/05/17 11:10:17;;;;;;;3.55;1.10;;;;;;;30.73;21.53;100393.68;1796581;79;21167;-79
2023/05/17 11:13:35;;;;;;;6.53;1.82;;;;;;;30.52;21.90;100390.89;1820114;78;21212;-83
2023/05/17 11:16:44;;;;;;;5.97;1.00;;;;;;;30.59;21.32;100383.46;1810984;78;21686;-80
2023/05/17 11:20:18;;;;;;;7.30;1.57;;;;;;;30.59;21.87;100389.11;1821207;78;21766;-82
2023/05/17 11:23:28;;;;;;;3.42;0.98;;;;;;;30.70;21.28;100399.89;1808273;77;21156;-82
2023/05/17 11:26:40;;;;;;;9.40;1.32;;;;;;;30.39;21.87;100384.61;1817369;78;21161;-80
2023/05/17 11:29:50;;;;;;;4.65;1.17;;;;;;;30.21;22.78;100391.97;1788732;78;21729;-83
2023/05/17 11:33:02;;;;;;;7.03;1.42;;;;;;;30.35;21.29;100382.13;1746362;80;21144;-81
2023/05/17 11:36:15;;;;;;;7.03;1.07;;;;;;;30.23;20.44;100376.97;1801089;79;21200;-83
2023/05/17 11:39:22;;;;;;;2.33;0.98;;;;;;;30.19;20.87;100374.49;1820335;78;21173;-81
2023/05/17 11:42:32;;;;;;;4.67;1.67;;;;;;;30.11;21.88;100370.33;1813758;79;21200;-82
2023/05/17 11:45:50;;;;;;;5.03;1.60;;;;;;;30.28;21.50;100376.31;1815658;77;21145;-82
2023/05/17 11:48:58;;;;;;;5.15;1.25;;;;;;;30.34;21.26;100358.73;1814767;77;21235;-82
2023/05/17 11:52:05;;;;;;;3.65;1.65;;;;;;;30.47;21.41;100365.58;1788119;79;21187;-79
2023/05/17 11:55:11;;;;;;;2.92;1.17;;;;;;;30.25;21.33;100354.38;1819493;78;21181;-82
2023/05/17 11:58:19;;;;;;;4.20;2.22;;;;;;;30.16;21.10;100351.98;1808406;78;21727;-81
2023/05/17 12:01:25;;;;;;;2.27;1.55;;;;;;;30.26;21.26;100345.34;1788292;79;21231;-81
2023/05/17 12:04:33;;;;;;;7.95;1.80;;;;;;;30.29;21.38;100361.63;1821005;78;21790;-80
2023/05/17 12:07:40;;;;;;;3.70;1.82;;;;;;;30.12;21.97;100346.66;1802937;79;21837;-83
2023/05/17 12:10:40;;;;;;;5.55;1.62;;;;;;;30.19;22.58;100346.28;1831657;78;21157;-82
2023/05/17 12:13:47;;;;;;;2.87;1.60;;;;;;;30.18;22.00;100334.17;1793624;79;21183;-83
2023/05/17 12:16:57;;;;;;;4.62;1.60;;;;;;;30.04;22.16;100334.64;1835022;78;21145;-83
2023/05/17 12:20:02;;;;;;;3.35;1.52;;;;;;;29.32;21.88;100339.57;1819138;78;21175;-83
2023/05/17 12:23:08;;;;;;;4.03;1.80;;;;;;;29.35;22.40;100337.54;1780037;79;21217;-81
2023/05/17 12:26:21;;;;;;;8.00;1.72;;;;;;;29.13;21.79;100327.67;1783309;80;21141;-83
2023/05/17 12:29:28;;;;;;;4.65;1.47;;;;;;;29.60;22.05;100335.02;1804452;78;21209;-80
2023/05/17 12:32:33;;;;;;;17.77;1.95;;;;;;;29.95;22.56;100320.39;1803518;79;21217;-81
2023/05/17 12:35:40;;;;;;;9.25;1.70;;;;;;;29.76;22.62;100313.34;1802680;79;21173;-81
2023/05/17 12:38:49;;;;;;;6.15;1.55;;;;;;;29.86;22.57;100319.98;1803930;79;21706;-80
2023/05/17 12:41:56;;;;;;;7.58;1.57;;;;;;;29.11;23.52;100314.45;1805727;79;21185;-83
2023/05/17 12:45:01;;;;;;;3.40;1.60;;;;;;;28.99;23.80;100317.70;1805732;78;21761;-79
2023/05/17 12:48:07;;;;;;;4.53;1.50;;;;;;;28.98;24.45;100312.34;1805974;78;21138;-80
2023/05/17 12:51:23;;;;;;;5.40;1.40;;;;;;;28.94;23.62;100308.44;1804256;79;21204;-83
2023/05/17 12:54:33;;;;;;;3.05;1.60;;;;;;;29.07;24.11;100302.10;1805045;79;21164;-80
2023/05/17 12:57:39;;;;;;;4.05;1.67;;;;;;;29.13;24.78;100308.54;1806133;79;21193;-82
2023/05/17 13:00:45;;;;;;;6.85;1.80;;;;;;;29.04;23.97;100309.76;1780795;79;21161;-80
2023/05/17 13:03:53;;;;;;;3.12;1.50;;;;;;;28.93;23.68;100311.80;1804915;79;21153;-83
2023/05/17 13:07:02;;;;;;;7.65;1.90;;;;;;;28.81;23.74;100303.52;1784077;78;21189;-81
2023/05/17 13:10:09;;;;;;;2.77;1.45;;;;;;;28.61;24.11;100311.61;1829431;78;21188;-81
2023/05/17 13:13:16;;;;;;;7.85;2.33;;;;;;;28.57;23.84;100314.73;1830026;78;21153;-83
2023/05/17 13:16:21;;;;;;;2.22;1.70;;;;;;;28.39;24.57;100308.70;1814049;78;21725;-80
2023/05/17 13:19:37;;;;;;;9.33;1.87;;;;;;;28.41;24.62;100312.61;1829773;78;21171;-83
2023/05/17 13:22:49;;;;;;;5.58;1.98;;;;;;;28.41;24.57;100309.23;1830666;78;21177;-82
2023/05/17 13:25:55;;;;;;;5.22;1.77;;;;;;;28.57;25.19;100306.30;1817829;78;21193;-80
2023/05/17 13:29:02;;;;;;;6.80;1.95;;;;;;;28.65;24.25;100301.41;1801181;79;21791;-80
2023/05/17 13:32:07;;;;;;;4.55;1.50;;;;;;;28.38;24.50;100309.00;1801630;79;21194;-80
2023/05/17 13:35:15;;;;;;;4.90;1.60;;;;;;;29.03;23.48;100310.91;1800331;79;21577;-80
2023/05/17 13:38:21;;;;;;;4.60;1.72;;;;;;;28.45;24.76;100307.50;1801583;79;21237;-82
2023/05/17 13:41:27;;;;;;;11.57;2.25;;;;;;;28.59;24.84;100302.60;1801617;79;21672;-80
2023/05/17 13:44:33;;;;;;;5.10;1.60;;;;;;;28.73;24.44;100299.36;1800312;79;21575;-83
2023/05/17 13:47:39;;;;;;;3.80;2.12;;;;;;;28.92;24.32;100306.48;1801597;79;21146;-83
2023/05/17 13:50:46;;;;;;;4.53;2.00;;;;;;;29.08;23.85;100309.98;1801718;79;21131;-83
2023/05/17 13:53:52;;;;;;;6.47;2.45;;;;;;;28.99;23.56;100301.37;1800428;79;21168;-81
2023/05/17 13:57:01;;;;;;;4.60;2.12;;;;;;;28.99;24.25;100299.39;1801711;79;21140;-83
2023/05/17 14:00:08;;;;;;;10.25;2.50;;;;;;;29.14;24.45;100301.77;1800355;79;21171;-80
2023/05/17 14:03:07;;;;;;;7.67;2.58;;;;;;;29.07;24.69;100303.52;1801643;79;21187;-81
2023/05/17 14:06:13;;;;;;;8.33;2.37;;;;;;;29.13;24.76;100302.33;1801946;79;21154;-81
2023/05/17 14:09:20;;;;;;;3.90;1.95;;;;;;;29.57;24.12;100284.31;1800508;79;21198;-79
2023/05/17 14:12:26;;;;;;;6.55;2.30;;;;;;;29.76;23.56;100299.82;1800180;79;21691;-80
2023/05/17 14:15:36;;;;;;;7.62;2.10;;;;;;;29.69;23.77;100293.17;1801671;79;21700;-80
2023/05/17 14:18:44;;;;;;;6.00;2.00;;;;;;;29.86;23.81;100301.65;1801470;79;21175;-80
2023/05/17 14:21:51;;;;;;;8.30;2.17;;;;;;;29.69;23.80;100288.08;1801790;79;21194;-82
2023/05/17 14:24:57;;;;;;;3.80;1.80;;;;;;;29.73;23.77;100282.09;1800770;79;21179;-83
2023/05/17 14:28:03;;;;;;;8.75;2.15;;;;;;;29.65;23.97;100278.58;1811295;77;21180;-83
2023/05/17 14:31:10;;;;;;;9.13;1.87;;;;;;;29.61;24.24;100281.16;1830920;78;21157;-80
2023/05/17 14:34:16;;;;;;;6.58;1.90;;;;;;;29.64;23.88;100274.06;1830250;78;21188;-83
2023/05/17 14:37:22;;;;;;;8.05;1.80;;;;;;;29.39;24.66;100276.64;1830920;78;21756;-80
2023/05/17 14:40:29;;;;;;;9.10;2.95;;;;;;;29.48;24.30;100270.60;1830118;78;21697;-83
2023/05/17 14:43:34;;;;;;;5.22;1.52;;;;;;;29.31;24.42;100284.34;1830568;78;21159;-82